createdAt,value
2018-08-28T00:01:05.728Z,100148.25
2018-08-28T00:03:34.659Z,100147.43
2018-08-28T00:06:03.759Z,100150.08
2018-08-28T00:08:32.697Z,100151.75
2018-08-28T00:11:01.634Z,100155.63
2018-08-28T00:13:30.581Z,100159.04
2018-08-28T00:15:59.543Z,100154.57
2018-08-28T00:18:28.512Z,100154.16
2018-08-28T00:20:57.454Z,100153.32
2018-08-28T00:23:26.388Z,100168.48
2018-08-28T00:25:55.344Z,100164.80
2018-08-28T00:28:24.287Z,100170.03
2018-08-28T00:30:53.249Z,100176.71
2018-08-28T00:33:22.200Z,100177.75
2018-08-28T00:35:51.178Z,100180.22
2018-08-28T00:38:20.106Z,100176.14
2018-08-28T00:40:49.041Z,100180.59
2018-08-28T00:43:18.090Z,100184.09
2018-08-28T00:45:47.074Z,100178.83
2018-08-28T00:48:16.015Z,100187.84
2018-08-28T00:50:45.069Z,100189.20
2018-08-28T00:53:14.057Z,100189.67
2018-08-28T00:55:43.000Z,100192.38
2018-08-28T00:58:12.035Z,100191.03
2018-08-28T01:00:40.969Z,100196.17
2018-08-28T01:03:09.854Z,100202.38
2018-08-28T01:05:38.820Z,100203.73
2018-08-28T01:08:07.741Z,100204.11
2018-08-28T01:10:36.683Z,100200.70
2018-08-28T01:13:05.733Z,100208.50
2018-08-28T01:15:34.820Z,100210.67
2018-08-28T01:18:03.786Z,100209.06
2018-08-28T01:20:36.464Z,100210.02
2018-08-28T01:23:05.371Z,100213.70
2018-08-28T01:25:34.314Z,100210.08
2018-08-28T01:28:03.233Z,100210.64
2018-08-28T01:30:33.757Z,100215.50
2018-08-28T01:33:04.418Z,100210.89
2018-08-28T01:35:33.353Z,100214.58
2018-08-28T01:38:02.906Z,100218.46
2018-08-28T01:40:31.996Z,100217.58
2018-08-28T01:43:01.215Z,100217.52
2018-08-28T01:45:30.173Z,100228.14
2018-08-28T01:47:59.089Z,100226.28
2018-08-28T01:50:28.009Z,100230.91
2018-08-28T01:52:56.983Z,100237.78
2018-08-28T01:55:25.895Z,100237.84
2018-08-28T01:57:54.806Z,100230.75
2018-08-28T02:00:23.816Z,100243.20
2018-08-28T02:02:52.820Z,100240.33
2018-08-28T02:05:21.768Z,100240.98
2018-08-28T02:07:50.696Z,100242.09
2018-08-28T02:10:19.960Z,100242.00
2018-08-28T02:12:48.911Z,100237.41
2018-08-28T02:15:17.845Z,100239.55
2018-08-28T02:17:46.764Z,100237.11
2018-08-28T02:20:15.684Z,100239.09
2018-08-28T02:22:44.672Z,100228.67
2018-08-28T02:25:13.600Z,100229.30
2018-08-28T02:27:42.554Z,100226.77
2018-08-28T02:30:11.465Z,100227.34
2018-08-28T02:32:40.459Z,100233.33
2018-08-28T02:35:09.379Z,100240.41
2018-08-28T02:37:38.352Z,100243.52
2018-08-28T02:40:07.331Z,100249.20
2018-08-28T02:42:36.253Z,100256.84
2018-08-28T02:45:05.202Z,100259.08
2018-08-28T02:47:34.233Z,100263.80
2018-08-28T02:50:03.143Z,100258.59
2018-08-28T02:52:32.092Z,100268.78
2018-08-28T02:55:01.006Z,100267.69
2018-08-28T02:57:29.961Z,100266.38
2018-08-28T02:59:58.877Z,100275.81
2018-08-28T03:02:27.797Z,100280.67
2018-08-28T03:04:56.730Z,100281.72
2018-08-28T03:07:25.648Z,100281.23
2018-08-28T03:09:54.620Z,100281.16
2018-08-28T03:12:23.678Z,100280.36
2018-08-28T03:14:52.588Z,100280.89
2018-08-28T03:17:21.724Z,100283.69
2018-08-28T03:19:50.676Z,100288.02
2018-08-28T03:22:19.632Z,100279.58
2018-08-28T03:24:48.601Z,100282.59
2018-08-28T03:27:17.552Z,100286.83
2018-08-28T03:29:46.443Z,100288.27
2018-08-28T03:32:15.375Z,100285.78
2018-08-28T03:34:44.443Z,100282.98
2018-08-28T03:37:13.377Z,100292.95
2018-08-28T03:39:42.309Z,100295.05
2018-08-28T03:42:11.237Z,100287.45
2018-08-28T03:44:40.200Z,100287.22
2018-08-28T03:47:09.111Z,100286.27
2018-08-28T03:49:38.042Z,100295.61
2018-08-28T03:52:06.984Z,100289.78
2018-08-28T03:54:35.908Z,100288.18
2018-08-28T03:57:04.965Z,100300.70
2018-08-28T03:59:33.864Z,100302.45
2018-08-28T04:02:03.103Z,100295.51
2018-08-28T04:04:32.020Z,100298.64
2018-08-28T04:07:00.954Z,100308.65
2018-08-28T04:09:29.864Z,100317.50
2018-08-28T04:11:58.792Z,100322.69
2018-08-28T04:14:27.719Z,100323.78
2018-08-28T04:16:57.091Z,100331.52
2018-08-28T04:19:25.991Z,100333.43
2018-08-28T04:21:54.941Z,100334.78
2018-08-28T04:24:23.975Z,100345.48
2018-08-28T04:26:52.921Z,100354.80
2018-08-28T04:29:21.899Z,100355.09
2018-08-28T04:31:50.854Z,100355.20
2018-08-28T04:34:19.772Z,100350.16
2018-08-28T04:36:48.740Z,100357.42
2018-08-28T04:39:17.668Z,100354.80
2018-08-28T04:41:46.768Z,100365.31
2018-08-28T04:44:15.663Z,100364.27
2018-08-28T04:46:44.832Z,100362.27
2018-08-28T04:49:13.761Z,100366.98
2018-08-28T04:51:42.706Z,100364.02
2018-08-28T04:54:11.740Z,100360.27
2018-08-28T04:56:40.606Z,100362.31
2018-08-28T04:59:09.568Z,100365.48
2018-08-28T05:01:40.744Z,100373.98
2018-08-28T05:04:09.687Z,100376.02
2018-08-28T05:06:38.599Z,100379.21
2018-08-28T05:09:08.540Z,100375.79
2018-08-28T05:11:37.681Z,100380.48
2018-08-28T05:14:06.603Z,100382.33
2018-08-28T05:16:35.504Z,100383.08
2018-08-28T05:19:04.803Z,100384.36
2018-08-28T05:21:33.726Z,100385.33
2018-08-28T05:24:02.743Z,100389.42
2018-08-28T05:26:31.684Z,100389.50
2018-08-28T05:29:00.619Z,100391.11
2018-08-28T05:31:29.546Z,100388.01
2018-08-28T05:33:58.497Z,100389.87
2018-08-28T05:36:27.466Z,100385.96
2018-08-28T05:38:56.438Z,100387.49
2018-08-28T05:41:25.437Z,100390.27
2018-08-28T05:43:54.375Z,100390.34
2018-08-28T05:46:23.529Z,100392.51
2018-08-28T05:48:52.437Z,100392.64
2018-08-28T05:51:21.341Z,100403.34
2018-08-28T05:53:50.293Z,100407.16
2018-08-28T05:56:19.250Z,100409.95
2018-08-28T05:58:48.141Z,100417.43
2018-08-28T06:01:18.105Z,100415.20
2018-08-28T06:03:47.019Z,100418.09
2018-08-28T06:06:15.926Z,100417.45
2018-08-28T06:08:44.865Z,100427.34
2018-08-28T06:11:13.764Z,100419.28
2018-08-28T06:13:42.689Z,100426.23
2018-08-28T06:16:11.987Z,100419.54
2018-08-28T06:18:42.801Z,100428.33
2018-08-28T06:21:11.794Z,100422.17
2018-08-28T06:23:40.945Z,100420.23
2018-08-28T06:26:09.883Z,100427.55
2018-08-28T06:28:39.218Z,100427.80
2018-08-28T06:31:08.509Z,100428.50
2018-08-28T06:33:37.432Z,100426.09
2018-08-28T06:36:06.405Z,100427.87
2018-08-28T06:38:35.328Z,100424.00
2018-08-28T06:41:04.249Z,100425.05
2018-08-28T06:43:33.247Z,100418.86
2018-08-28T06:46:02.078Z,100427.66
2018-08-28T06:48:31.040Z,100430.37
2018-08-28T06:50:59.987Z,100434.04
2018-08-28T06:53:28.998Z,100427.63
2018-08-28T06:55:57.919Z,100431.02
2018-08-28T06:58:26.911Z,100436.64
2018-08-28T07:00:55.889Z,100438.53
2018-08-28T07:03:24.832Z,100434.30
2018-08-28T07:05:53.792Z,100439.16
2018-08-28T07:08:22.757Z,100440.59
2018-08-28T07:10:51.716Z,100445.80
2018-08-28T07:13:20.608Z,100442.58
2018-08-28T07:15:49.540Z,100446.84
2018-08-28T07:18:18.488Z,100451.13
2018-08-28T07:20:47.416Z,100453.85
2018-08-28T07:23:16.348Z,100452.27
2018-08-28T07:25:45.796Z,100464.33
2018-08-28T07:28:15.038Z,100464.98
2018-08-28T07:30:44.267Z,100463.66
2018-08-28T07:33:13.184Z,100465.02
2018-08-28T07:35:42.114Z,100467.52
2018-08-28T07:38:11.133Z,100473.50
2018-08-28T07:40:40.113Z,100472.89
2018-08-28T07:43:10.065Z,100472.07
2018-08-28T07:45:38.981Z,100473.91
2018-08-28T07:48:08.000Z,100476.75
2018-08-28T07:50:36.925Z,100466.94
2018-08-28T07:53:05.968Z,100476.04
2018-08-28T07:55:34.950Z,100477.38
2018-08-28T07:58:03.876Z,100478.63
2018-08-28T08:00:32.814Z,100480.49
2018-08-28T08:03:01.829Z,100480.33
2018-08-28T08:05:30.771Z,100472.75
2018-08-28T08:07:59.714Z,100476.47
2018-08-28T08:10:28.707Z,100479.91
2018-08-28T08:12:57.662Z,100478.89
2018-08-28T08:15:26.581Z,100480.41
2018-08-28T08:17:55.513Z,100480.97
2018-08-28T08:20:24.452Z,100490.45
2018-08-28T08:22:53.380Z,100490.02
2018-08-28T08:25:22.321Z,100493.98
2018-08-28T08:27:51.286Z,100495.84
2018-08-28T08:30:20.188Z,100493.41
2018-08-28T08:32:49.095Z,100497.90
2018-08-28T08:35:18.110Z,100495.38
2018-08-28T08:37:47.115Z,100503.33
2018-08-28T08:40:16.111Z,100502.98
2018-08-28T08:45:12.634Z,100501.16
2018-08-28T08:47:41.608Z,100502.84
2018-08-28T08:50:10.569Z,100504.95
2018-08-28T08:52:39.516Z,100509.50
2018-08-28T08:55:08.461Z,100504.87
2018-08-28T08:57:37.396Z,100507.09
2018-08-28T09:00:06.324Z,100494.52
2018-08-28T09:02:35.250Z,100503.77
2018-08-28T09:05:04.182Z,100503.95
2018-08-28T09:07:33.090Z,100508.39
2018-08-28T09:10:02.020Z,100501.87
2018-08-28T09:12:30.974Z,100501.21
2018-08-28T09:14:59.891Z,100501.13
2018-08-28T09:17:28.826Z,100515.06
2018-08-28T09:19:57.742Z,100508.42
2018-08-28T09:22:26.733Z,100505.75
2018-08-28T09:24:55.668Z,100510.61
2018-08-28T09:27:24.585Z,100499.75
2018-08-28T09:29:53.537Z,100500.19
2018-08-28T09:32:22.480Z,100499.18
2018-08-28T09:34:51.376Z,100498.16
2018-08-28T09:37:20.300Z,100504.67
2018-08-28T09:39:49.263Z,100504.75
2018-08-28T09:42:18.242Z,100491.08
2018-08-28T09:44:47.178Z,100497.16
2018-08-28T09:47:16.092Z,100489.09
2018-08-28T09:49:45.079Z,100489.69
2018-08-28T09:52:14.038Z,100488.11
2018-08-28T09:54:43.043Z,100493.12
2018-08-28T09:57:11.973Z,100491.25
2018-08-28T09:59:40.907Z,100486.05
2018-08-28T10:02:09.852Z,100486.52
2018-08-28T10:04:38.883Z,100486.80
2018-08-28T10:07:07.795Z,100491.22
2018-08-28T10:09:36.716Z,100479.17
2018-08-28T10:12:05.928Z,100484.25
2018-08-28T10:14:34.894Z,100489.71
2018-08-28T10:17:03.986Z,100485.30
2018-08-28T10:19:32.951Z,100484.37
2018-08-28T10:22:02.733Z,100484.13
2018-08-28T10:24:31.712Z,100486.55
2018-08-28T10:27:00.600Z,100481.47
2018-08-28T10:29:29.607Z,100480.77
2018-08-28T10:31:58.557Z,100483.80
2018-08-28T10:34:27.565Z,100469.34
2018-08-28T10:36:56.491Z,100470.69
2018-08-28T10:39:25.420Z,100471.36
2018-08-28T10:41:54.366Z,100466.92
2018-08-28T10:44:23.311Z,100469.70
2018-08-28T10:46:52.451Z,100476.51
2018-08-28T10:49:21.205Z,100480.20
2018-08-28T10:51:50.239Z,100474.25
2018-08-28T10:54:19.195Z,100476.83
2018-08-28T10:56:48.122Z,100480.38
2018-08-28T10:59:17.050Z,100470.83
2018-08-28T11:01:45.998Z,100484.36
2018-08-28T11:04:14.961Z,100490.88
2018-08-28T11:06:43.906Z,100482.64
2018-08-28T11:09:12.883Z,100496.80
2018-08-28T11:11:41.981Z,100499.73
2018-08-28T11:14:10.955Z,100502.37
2018-08-28T11:16:39.923Z,100491.37
2018-08-28T11:19:08.917Z,100491.47
2018-08-28T11:21:37.963Z,100495.14
2018-08-28T11:24:07.007Z,100493.67
2018-08-28T11:26:35.974Z,100494.97
2018-08-28T11:29:04.928Z,100489.80
2018-08-28T11:31:33.854Z,100488.34
2018-08-28T11:34:02.919Z,100499.50
2018-08-28T11:36:31.869Z,100501.37
2018-08-28T11:39:00.781Z,100500.16
2018-08-28T11:41:29.704Z,100496.53
2018-08-28T11:43:58.619Z,100494.29
2018-08-28T11:46:27.562Z,100496.07
2018-08-28T11:48:56.535Z,100491.39
2018-08-28T11:51:25.555Z,100498.19
2018-08-28T11:53:54.473Z,100491.84
2018-08-28T11:56:23.384Z,100485.20
2018-08-28T11:58:52.289Z,100478.10
2018-08-28T12:01:21.256Z,100482.02
2018-08-28T12:03:50.174Z,100479.48
2018-08-28T12:06:19.092Z,100475.22
2018-08-28T12:08:48.057Z,100477.72
2018-08-28T12:11:16.966Z,100486.34
2018-08-28T12:13:45.907Z,100479.62
2018-08-28T12:16:14.839Z,100473.00
2018-08-28T12:18:43.800Z,100469.72
2018-08-28T12:21:12.745Z,100469.80
2018-08-28T12:23:41.713Z,100473.61
2018-08-28T12:26:10.641Z,100471.95
2018-08-28T12:28:39.579Z,100481.55
2018-08-28T12:31:08.737Z,100479.28
2018-08-28T12:33:37.641Z,100478.40
2018-08-28T12:36:06.569Z,100468.34
2018-08-28T12:38:35.484Z,100467.64
2018-08-28T12:41:04.459Z,100469.25
2018-08-28T12:43:33.436Z,100470.59
2018-08-28T12:46:02.393Z,100460.72
2018-08-28T12:48:31.376Z,100464.45
2018-08-28T12:51:00.427Z,100450.27
2018-08-28T12:53:29.393Z,100463.09
2018-08-28T12:55:58.344Z,100456.53
2018-08-28T12:58:27.296Z,100456.28
2018-08-28T13:00:56.348Z,100449.28
2018-08-28T13:03:25.479Z,100450.20
2018-08-28T13:05:54.417Z,100453.20
2018-08-28T13:08:23.545Z,100459.33
2018-08-28T13:10:52.642Z,100448.88
2018-08-28T13:13:21.599Z,100445.56
2018-08-28T13:15:50.590Z,100445.44
2018-08-28T13:18:19.647Z,100443.23
2018-08-28T13:20:48.579Z,100441.30
2018-08-28T13:23:17.655Z,100438.34
2018-08-28T13:25:46.662Z,100436.77
2018-08-28T13:28:15.836Z,100435.65
2018-08-28T13:30:44.798Z,100437.66
2018-08-28T13:33:13.745Z,100434.08
2018-08-28T13:35:42.699Z,100436.31
2018-08-28T13:38:11.718Z,100434.90
2018-08-28T13:40:40.942Z,100424.34
2018-08-28T13:43:09.701Z,100424.30
2018-08-28T13:45:38.645Z,100416.37
2018-08-28T13:48:07.569Z,100420.13
2018-08-28T13:50:36.512Z,100421.19
2018-08-28T13:53:05.499Z,100415.64
2018-08-28T13:55:34.437Z,100418.09
2018-08-28T13:58:03.384Z,100415.97
2018-08-28T14:00:32.348Z,100417.06
2018-08-28T14:03:01.293Z,100416.68
2018-08-28T14:05:30.448Z,100413.69
2018-08-28T14:07:59.384Z,100411.08
2018-08-28T14:10:28.376Z,100413.78
2018-08-28T14:12:57.367Z,100428.40
2018-08-28T14:15:26.324Z,100427.22
2018-08-28T14:17:55.287Z,100424.08
2018-08-28T14:20:24.284Z,100420.69
2018-08-28T14:22:53.278Z,100419.93
2018-08-28T14:25:22.178Z,100420.89
2018-08-28T14:27:51.131Z,100421.88
2018-08-28T14:30:20.077Z,100415.38
2018-08-28T14:32:49.151Z,100407.55
2018-08-28T14:35:18.169Z,100402.81
2018-08-28T14:37:47.086Z,100410.58
2018-08-28T14:40:16.686Z,100408.42
2018-08-28T14:42:45.745Z,100402.94
2018-08-28T14:45:14.574Z,100407.50
2018-08-28T14:47:43.522Z,100407.28
2018-08-28T14:50:12.589Z,100405.36
2018-08-28T14:52:41.476Z,100399.66
2018-08-28T14:55:11.142Z,100402.59
2018-08-28T14:57:40.262Z,100400.41
2018-08-28T15:00:10.434Z,100396.02
2018-08-28T15:02:39.360Z,100402.33
2018-08-28T15:05:08.313Z,100401.21
2018-08-28T15:07:37.423Z,100401.59
2018-08-28T15:10:06.432Z,100406.27
2018-08-28T15:12:35.431Z,100400.31
2018-08-28T15:15:04.491Z,100407.66
2018-08-28T15:17:33.382Z,100406.53
2018-08-28T15:20:02.330Z,100399.84
2018-08-28T15:22:31.500Z,100398.23
2018-08-28T15:25:00.431Z,100399.81
2018-08-28T15:27:29.400Z,100399.43
2018-08-28T15:29:58.306Z,100400.99
2018-08-28T15:32:27.280Z,100393.72
2018-08-28T15:34:56.185Z,100397.63
2018-08-28T15:37:25.146Z,100400.39
2018-08-28T15:39:54.098Z,100398.11
2018-08-28T15:42:23.056Z,100394.27
2018-08-28T15:44:52.022Z,100388.44
2018-08-28T15:47:21.028Z,100392.11
2018-08-28T15:49:49.941Z,100390.05
2018-08-28T15:52:18.859Z,100391.86
2018-08-28T15:54:47.786Z,100392.27
2018-08-28T15:57:16.740Z,100387.66
2018-08-28T15:59:45.656Z,100395.02
2018-08-28T16:02:14.619Z,100394.20
2018-08-28T16:04:43.697Z,100390.31
2018-08-28T16:07:12.561Z,100395.63
2018-08-28T16:09:41.497Z,100398.07
2018-08-28T16:12:10.417Z,100393.83
2018-08-28T16:14:39.425Z,100394.55
2018-08-28T16:17:08.402Z,100396.61
2018-08-28T16:19:37.348Z,100399.52
2018-08-28T16:22:06.425Z,100399.16
2018-08-28T16:24:35.660Z,100394.81
2018-08-28T16:27:04.590Z,100403.47
2018-08-28T16:29:33.544Z,100404.64
2018-08-28T16:32:02.604Z,100406.57
2018-08-28T16:34:31.569Z,100406.90
2018-08-28T16:37:00.684Z,100408.59
2018-08-28T16:39:29.657Z,100408.33
2018-08-28T16:41:58.590Z,100413.16
2018-08-28T16:44:27.556Z,100406.84
2018-08-28T16:46:56.555Z,100410.14
2018-08-28T16:49:25.446Z,100400.72
2018-08-28T16:51:54.379Z,100409.41
2018-08-28T16:54:23.403Z,100407.52
2018-08-28T16:56:52.439Z,100402.48
2018-08-28T16:59:21.385Z,100402.95
2018-08-28T17:01:50.814Z,100397.75
2018-08-28T17:04:19.673Z,100402.16
2018-08-28T17:06:48.593Z,100401.88
2018-08-28T17:09:17.577Z,100407.64
2018-08-28T17:11:46.783Z,100409.79
2018-08-28T17:14:15.755Z,100403.80
2018-08-28T17:16:44.755Z,100408.17
2018-08-28T17:19:13.747Z,100406.52
2018-08-28T17:21:42.612Z,100404.48
2018-08-28T17:24:11.626Z,100407.96
2018-08-28T17:26:40.552Z,100409.86
2018-08-28T17:29:09.476Z,100413.48
2018-08-28T17:31:38.437Z,100415.05
2018-08-28T17:34:07.447Z,100416.72
2018-08-28T17:36:36.444Z,100413.67
2018-08-28T17:39:06.097Z,100419.66
2018-08-28T17:41:35.064Z,100423.36
2018-08-28T17:44:04.013Z,100420.84
2018-08-28T17:46:33.118Z,100421.73
2018-08-28T17:49:02.366Z,100420.09
2018-08-28T17:51:31.308Z,100429.48
2018-08-28T17:54:00.273Z,100422.48
2018-08-28T17:56:29.228Z,100435.33
2018-08-28T17:58:58.300Z,100431.16
2018-08-28T18:01:27.338Z,100443.19
2018-08-28T18:03:56.345Z,100442.40
2018-08-28T18:06:25.298Z,100441.34
2018-08-28T18:08:54.312Z,100439.48
2018-08-28T18:11:23.216Z,100445.02
2018-08-28T18:13:52.144Z,100444.67
2018-08-28T18:16:21.072Z,100439.66
2018-08-28T18:18:49.967Z,100445.40
2018-08-28T18:21:18.929Z,100447.44
2018-08-28T18:23:47.848Z,100451.45
2018-08-28T18:26:16.857Z,100452.66
2018-08-28T18:28:45.999Z,100450.31
2018-08-28T18:31:14.929Z,100456.06
2018-08-28T18:33:43.855Z,100454.19
2018-08-28T18:36:12.822Z,100451.98
2018-08-28T18:38:41.823Z,100453.17
2018-08-28T18:41:10.798Z,100459.06
2018-08-28T18:43:39.729Z,100453.00
2018-08-28T18:46:08.883Z,100458.41
2018-08-28T18:48:37.775Z,100459.30
2018-08-28T18:51:06.673Z,100461.17
2018-08-28T18:53:35.664Z,100455.36
2018-08-28T18:56:04.625Z,100463.70
2018-08-28T18:58:33.470Z,100463.89
2018-08-28T19:01:02.416Z,100464.15
2018-08-28T19:03:31.328Z,100460.58
2018-08-28T19:06:00.261Z,100465.47
2018-08-28T19:08:29.212Z,100463.41
2018-08-28T19:10:58.137Z,100463.59
2018-08-28T19:13:27.059Z,100462.16
2018-08-28T19:15:56.006Z,100464.11
2018-08-28T19:18:24.965Z,100462.05
2018-08-28T19:20:53.937Z,100459.60
2018-08-28T19:23:22.889Z,100459.53
2018-08-28T19:25:51.837Z,100461.92
2018-08-28T19:28:20.805Z,100457.91
2018-08-28T19:30:50.054Z,100456.73
2018-08-28T19:33:18.981Z,100456.82
2018-08-28T19:35:47.958Z,100453.97
2018-08-28T19:38:16.980Z,100454.77
2018-08-28T19:40:46.079Z,100447.19
2018-08-28T19:43:15.223Z,100440.80
2018-08-28T19:45:44.298Z,100436.12
2018-08-28T19:48:14.053Z,100436.66
2018-08-28T19:50:43.348Z,100435.72
2018-08-28T19:53:12.575Z,100434.37
2018-08-28T19:55:41.543Z,100435.81
2018-08-28T19:58:10.689Z,100433.32
2018-08-28T20:00:39.548Z,100434.45
2018-08-28T20:03:08.548Z,100430.70
2018-08-28T20:05:37.508Z,100432.53
2018-08-28T20:08:06.393Z,100424.88
2018-08-28T20:10:35.323Z,100443.60
2018-08-28T20:13:04.382Z,100439.92
2018-08-28T20:15:33.376Z,100440.48
2018-08-28T20:18:02.296Z,100445.66
2018-08-28T20:20:31.215Z,100445.83
2018-08-28T20:23:00.106Z,100450.36
2018-08-28T20:25:29.028Z,100448.19
2018-08-28T20:27:58.026Z,100447.47
2018-08-28T20:30:26.988Z,100446.20
2018-08-28T20:32:55.938Z,100448.75
2018-08-28T20:35:24.936Z,100445.72
2018-08-28T20:37:53.940Z,100448.73
2018-08-28T20:40:22.872Z,100441.55
2018-08-28T20:42:51.807Z,100445.91
2018-08-28T20:45:20.768Z,100452.88
2018-08-28T20:47:49.692Z,100447.64
2018-08-28T20:50:18.704Z,100445.57
2018-08-28T20:52:47.712Z,100440.69
2018-08-28T20:55:16.637Z,100445.31
2018-08-28T20:57:45.539Z,100451.92
2018-08-28T21:00:14.496Z,100445.09
2018-08-28T21:02:43.433Z,100441.55
2018-08-28T21:05:12.369Z,100440.78
2018-08-28T21:07:41.276Z,100436.93
2018-08-28T21:10:10.192Z,100444.98
2018-08-28T21:12:39.196Z,100439.56
2018-08-28T21:15:08.164Z,100440.80
2018-08-28T21:17:37.138Z,100449.84
2018-08-28T21:20:06.427Z,100444.20
2018-08-28T21:22:35.427Z,100450.24
2018-08-28T21:25:04.371Z,100445.92
2018-08-28T21:27:33.469Z,100450.24
2018-08-28T21:30:02.503Z,100450.48
2018-08-28T21:32:31.576Z,100450.06
2018-08-28T21:35:00.545Z,100445.57
2018-08-28T21:37:29.469Z,100446.39
2018-08-28T21:39:58.401Z,100452.79
2018-08-28T21:42:27.313Z,100447.88
2018-08-28T21:44:56.232Z,100448.92
2018-08-28T21:47:25.293Z,100448.91
2018-08-28T21:49:54.361Z,100444.98
2018-08-28T21:52:23.468Z,100448.34
2018-08-28T21:54:52.395Z,100444.23
2018-08-28T21:57:21.340Z,100451.55
2018-08-28T21:59:50.809Z,100448.66
2018-08-28T22:02:19.870Z,100448.28
2018-08-28T22:04:48.832Z,100447.75
2018-08-28T22:07:23.097Z,100449.08
2018-08-28T22:09:52.028Z,100450.92
2018-08-28T22:12:20.944Z,100452.40
2018-08-28T22:14:49.867Z,100449.88
2018-08-28T22:17:18.789Z,100449.81
2018-08-28T22:19:47.913Z,100454.42
2018-08-28T22:22:16.908Z,100448.64
2018-08-28T22:24:45.834Z,100447.70
2018-08-28T22:27:14.748Z,100450.80
2018-08-28T22:29:43.659Z,100447.42
2018-08-28T22:32:12.565Z,100449.97
2018-08-28T22:34:41.509Z,100447.59
2018-08-28T22:37:10.455Z,100443.63
2018-08-28T22:39:39.396Z,100446.20
2018-08-28T22:42:08.826Z,100439.29
2018-08-28T22:44:37.753Z,100444.69
2018-08-28T22:47:06.685Z,100438.84
2018-08-28T22:49:35.585Z,100432.91
2018-08-28T22:52:04.539Z,100447.38
2018-08-28T22:54:33.442Z,100440.41
2018-08-28T22:57:02.376Z,100442.25
2018-08-28T22:59:31.319Z,100435.34
2018-08-28T23:02:00.317Z,100436.24
2018-08-28T23:04:29.363Z,100435.00
2018-08-28T23:06:58.247Z,100430.49
2018-08-28T23:09:27.172Z,100435.89
2018-08-28T23:11:56.084Z,100435.75
2018-08-28T23:14:25.027Z,100429.91
2018-08-28T23:16:53.965Z,100428.06
2018-08-28T23:19:22.884Z,100427.84
2018-08-28T23:21:51.853Z,100427.39
2018-08-28T23:24:20.853Z,100428.41
2018-08-28T23:26:49.832Z,100424.45
2018-08-28T23:29:18.913Z,100422.70
2018-08-28T23:31:48.123Z,100415.73
2018-08-28T23:34:17.047Z,100416.80
2018-08-28T23:36:45.973Z,100411.83
2018-08-28T23:39:14.909Z,100409.69
2018-08-28T23:41:43.860Z,100412.77
2018-08-28T23:44:12.787Z,100412.52
2018-08-28T23:46:41.719Z,100405.10
2018-08-28T23:49:10.636Z,100402.45
2018-08-28T23:51:40.626Z,100403.00
2018-08-28T23:54:09.584Z,100403.05
2018-08-28T23:56:38.492Z,100393.91
2018-08-28T23:59:07.467Z,100399.37
